Gossett, Illinois
Current Conditions -  °F | °C
As of 8:15 PM on Monday 22 Dec 2014 (Local Time) from KCUL Reporting Station
Overcast Overcast  
Wind Chill: 51°   Ceiling: 1400
Heat Index: 51°   Visibility: 10mi
Dew Point: 50°   Wind: 13mph
Humidity: 97%   Direction: 140°SE
Pressure: 29.62"   Gusts: NA
Location:  37.9739°N, 88.3193°W
Report Text: KCUL 230215Z AUTO 14011KT 10SM BKN014 BKN028 OVC034 11/10 A2962 RMK AO2 LTG DSNT SE T01050101
Loading
Personal Weather Stations






























Interactive Weather Map New forecast layout! Learn more

10-Day Weather Forecast

Advertisements
Track Severe Weather on mobile